createdAt,value
2023-04-24T00:00:34.637Z,98462.09
2023-04-24T00:01:40.664Z,98466.59
2023-04-24T00:02:48.426Z,98468.28
2023-04-24T00:03:52.600Z,98455.25
2023-04-24T00:05:03.809Z,98461.25
2023-04-24T00:06:11.769Z,98459.56
2023-04-24T00:07:18.176Z,98459.75
2023-04-24T00:08:24.429Z,98455.19
2023-04-24T00:09:28.765Z,98454.34
2023-04-24T00:10:33.215Z,98460.38
2023-04-24T00:11:40.751Z,98459.34
2023-04-24T00:12:45.339Z,98455.66
2023-04-24T00:13:49.347Z,98456.50
2023-04-24T00:14:53.426Z,98462.31
2023-04-24T00:16:01.061Z,98451.09
2023-04-24T00:17:05.640Z,98450.25
2023-04-24T00:18:09.781Z,98453.16
2023-04-24T00:19:15.252Z,98454.78
2023-04-24T00:20:20.223Z,98455.75
2023-04-24T00:21:26.907Z,98458.59
2023-04-24T00:22:32.269Z,98447.38
2023-04-24T00:23:37.670Z,98452.28
2023-04-24T00:24:42.490Z,98451.09
2023-04-24T00:25:47.926Z,98446.91
2023-04-24T00:26:51.806Z,98452.28
2023-04-24T00:27:55.601Z,98453.19
2023-04-24T00:28:59.309Z,98456.59
2023-04-24T00:30:07.391Z,98450.06
2023-04-24T00:31:11.292Z,98445.72
2023-04-24T00:32:20.076Z,98449.34
2023-04-24T00:33:27.076Z,98440.94
2023-04-24T00:34:34.188Z,98441.09
2023-04-24T00:35:38.147Z,98443.06
2023-04-24T00:36:44.657Z,98435.75
2023-04-24T00:37:49.964Z,98436.75
2023-04-24T00:38:56.608Z,98441.41
2023-04-24T00:40:01.607Z,98439.72
2023-04-24T00:41:06.157Z,98434.38
2023-04-24T00:42:13.476Z,98431.19
2023-04-24T00:43:20.905Z,98437.22
2023-04-24T00:44:31.101Z,98437.06
2023-04-24T00:45:39.436Z,98441.91
2023-04-24T00:46:45.042Z,98437.53
2023-04-24T00:47:53.777Z,98438.31
2023-04-24T00:49:00.849Z,98436.09
2023-04-24T00:50:07.550Z,98434.88
2023-04-24T00:51:12.646Z,98435.97
2023-04-24T00:52:19.262Z,98432.31
2023-04-24T00:53:23.694Z,98437.94
2023-04-24T00:54:29.010Z,98428.09
2023-04-24T00:55:35.518Z,98437.66
2023-04-24T00:56:41.586Z,98430.69
2023-04-24T00:57:46.944Z,98425.28
2023-04-24T00:58:52.439Z,98428.31
2023-04-24T00:59:59.453Z,98434.59
2023-04-24T01:01:18.646Z,98429.03
2023-04-24T01:02:41.609Z,98433.88
2023-04-24T01:03:47.564Z,98422.63
2023-04-24T01:04:53.003Z,98425.47
2023-04-24T01:05:58.204Z,98425.47
2023-04-24T01:07:02.455Z,98425.31
2023-04-24T01:08:08.453Z,98429.19
2023-04-24T01:09:14.316Z,98427.81
2023-04-24T01:10:19.276Z,98422.84
2023-04-24T01:11:23.801Z,98417.00
2023-04-24T01:12:28.062Z,98426.81
2023-04-24T01:13:34.404Z,98427.97
2023-04-24T01:14:40.128Z,98424.09
2023-04-24T01:15:43.722Z,98425.03
2023-04-24T01:16:48.271Z,98420.06
2023-04-24T01:17:54.789Z,98420.22
2023-04-24T01:19:01.883Z,98420.50
2023-04-24T01:20:08.280Z,98420.13
2023-04-24T01:21:21.631Z,98419.22
2023-04-24T01:22:35.681Z,98422.59
2023-04-24T01:24:09.406Z,98418.53
2023-04-24T01:25:31.889Z,98413.34
2023-04-24T01:26:51.221Z,98418.16
2023-04-24T01:27:57.366Z,98415.63
2023-04-24T01:29:03.748Z,98415.78
2023-04-24T01:30:09.472Z,98408.91
2023-04-24T01:31:23.498Z,98414.47
2023-04-24T01:32:30.119Z,98413.13
2023-04-24T01:33:42.148Z,98416.41
2023-04-24T01:34:48.007Z,98408.00
2023-04-24T01:35:52.210Z,98411.44
2023-04-24T01:36:57.181Z,98404.81
2023-04-24T01:38:01.306Z,98404.25
2023-04-24T01:39:07.040Z,98408.25
2023-04-24T01:40:11.795Z,98406.41
2023-04-24T01:41:15.547Z,98402.56
2023-04-24T01:42:20.642Z,98403.06
2023-04-24T01:43:26.071Z,98395.56
2023-04-24T01:44:30.470Z,98406.84
2023-04-24T01:45:34.460Z,98398.44
2023-04-24T01:46:39.228Z,98403.06
2023-04-24T01:47:46.429Z,98399.06
2023-04-24T01:48:55.929Z,98391.66
2023-04-24T01:50:00.671Z,98399.16
2023-04-24T01:51:05.010Z,98386.09
2023-04-24T01:52:09.413Z,98387.47
2023-04-24T01:53:13.705Z,98391.13
2023-04-24T01:54:17.637Z,98389.16
2023-04-24T01:55:25.124Z,98385.41
2023-04-24T01:56:34.248Z,98386.00
2023-04-24T01:57:38.319Z,98388.88
2023-04-24T01:58:42.992Z,98390.91
2023-04-24T01:59:47.233Z,98384.00
2023-04-24T02:00:51.743Z,98381.63
2023-04-24T02:01:55.772Z,98388.69
2023-04-24T02:03:00.404Z,98386.88
2023-04-24T03:09:05.645Z,98335.59
2023-04-24T03:10:12.512Z,98335.06
2023-04-24T03:11:26.605Z,98338.41
2023-04-24T03:12:31.396Z,98340.38
2023-04-24T03:13:38.301Z,98335.44
2023-04-24T03:14:44.465Z,98341.22
2023-04-24T03:15:57.946Z,98341.91
2023-04-24T03:17:11.627Z,98346.25
2023-04-24T03:18:19.782Z,98343.28
2023-04-24T03:19:27.068Z,98347.09
2023-04-24T03:20:34.225Z,98343.84
2023-04-24T03:21:42.830Z,98341.75
2023-04-24T03:22:50.261Z,98343.16
2023-04-24T03:24:10.812Z,98341.50
2023-04-24T03:25:29.239Z,98340.78
2023-04-24T03:26:59.557Z,98343.16
2023-04-24T03:28:18.037Z,98329.53
2023-04-24T03:29:34.476Z,98339.22
2023-04-24T03:30:41.076Z,98341.19
2023-04-24T03:31:54.893Z,98339.66
2023-04-24T03:33:03.499Z,98344.16
2023-04-24T03:34:08.316Z,98343.69
2023-04-24T03:35:12.524Z,98340.66
2023-04-24T03:36:16.507Z,98341.50
2023-04-24T03:37:20.409Z,98335.84
2023-04-24T03:38:24.114Z,98339.25
2023-04-24T03:39:28.535Z,98340.38
2023-04-24T03:40:37.896Z,98337.56
2023-04-24T03:41:42.608Z,98338.94
2023-04-24T03:42:46.319Z,98334.75
2023-04-24T03:43:52.190Z,98336.44
2023-04-24T03:44:56.060Z,98344.84
2023-04-24T03:46:00.178Z,98341.06
2023-04-24T03:47:03.961Z,98342.59
2023-04-24T03:48:25.337Z,98338.81
2023-04-24T03:49:36.621Z,98343.84
2023-04-24T03:50:46.572Z,98342.06
2023-04-24T03:52:15.930Z,98342.59
2023-04-24T03:53:27.518Z,98345.84
2023-04-24T03:54:35.903Z,98343.47
2023-04-24T03:55:43.617Z,98338.81
2023-04-24T03:56:50.361Z,98347.78
2023-04-24T03:58:07.361Z,98345.69
2023-04-24T03:59:13.178Z,98341.91
2023-04-24T04:00:28.824Z,98345.44
2023-04-24T04:01:44.102Z,98345.72
2023-04-24T04:03:05.602Z,98338.28
2023-04-24T04:05:50.715Z,98335.91
2023-04-24T04:07:07.689Z,98339.13
2023-04-24T04:08:23.879Z,98342.78
2023-04-24T04:09:27.907Z,98339.81
2023-04-24T04:10:32.476Z,98335.31
2023-04-24T04:11:37.760Z,98340.34
2023-04-24T04:12:42.891Z,98345.56
2023-04-24T04:13:49.221Z,98338.94
2023-04-24T04:14:53.388Z,98343.03
2023-04-24T04:15:57.497Z,98340.22
2023-04-24T04:17:05.190Z,98343.28
2023-04-24T04:18:32.460Z,98341.47
2023-04-24T04:19:44.824Z,98347.09
2023-04-24T04:21:01.671Z,98346.09
2023-04-24T04:22:09.290Z,98336.16
2023-04-24T04:23:13.250Z,98335.59
2023-04-24T04:25:49.725Z,98338.63
2023-04-24T04:26:57.827Z,98342.69
2023-04-24T04:28:03.339Z,98334.72
2023-04-24T04:29:07.942Z,98342.69
2023-04-24T04:30:16.049Z,98335.53
2023-04-24T04:31:50.625Z,98338.63
2023-04-24T04:33:03.651Z,98328.22
2023-04-24T04:34:27.205Z,98321.91
2023-04-24T04:35:39.937Z,98331.25
2023-04-24T04:36:48.838Z,98330.41
2023-04-24T04:37:55.208Z,98323.25
2023-04-24T04:39:02.147Z,98328.31
2023-04-24T04:40:12.841Z,98329.41
2023-04-24T04:41:23.023Z,98337.94
2023-04-24T04:42:41.570Z,98338.50
2023-04-24T04:44:06.839Z,98329.50
2023-04-24T04:45:12.573Z,98329.34
2023-04-24T04:46:18.202Z,98324.44
2023-04-24T04:47:36.512Z,98326.09
2023-04-24T04:48:41.516Z,98332.28
2023-04-24T04:49:46.030Z,98329.59
2023-04-24T04:50:50.695Z,98327.34
2023-04-24T04:51:55.475Z,98325.19
2023-04-24T04:53:02.882Z,98326.03
2023-04-24T04:54:06.752Z,98324.03
2023-04-24T04:55:10.804Z,98330.09
2023-04-24T04:56:14.656Z,98326.28
2023-04-24T04:57:19.548Z,98321.50
2023-04-24T04:58:25.412Z,98327.50
2023-04-24T04:59:30.074Z,98328.88
2023-04-24T05:00:36.911Z,98327.75
2023-04-24T05:03:20.732Z,98327.00
2023-04-24T05:04:26.085Z,98330.06
2023-04-24T05:05:31.397Z,98329.59
2023-04-24T05:06:35.467Z,98331.16
2023-04-24T05:07:39.778Z,98336.47
2023-04-24T05:08:43.798Z,98325.50
2023-04-24T05:09:48.597Z,98334.00
2023-04-24T05:10:53.927Z,98329.38
2023-04-24T05:11:57.957Z,98334.44
2023-04-24T05:13:03.174Z,98327.25
2023-04-24T05:14:07.323Z,98333.28
2023-04-24T05:15:13.473Z,98329.66
2023-04-24T05:16:18.952Z,98327.88
2023-04-24T05:17:22.935Z,98335.13
2023-04-24T05:18:27.102Z,98327.34
2023-04-24T05:19:34.038Z,98326.25
2023-04-24T05:20:39.527Z,98317.69
2023-04-24T05:21:43.632Z,98321.13
2023-04-24T05:22:47.520Z,98316.25
2023-04-24T05:23:52.395Z,98320.03
2023-04-24T05:24:57.447Z,98323.50
2023-04-24T05:26:05.097Z,98319.94
2023-04-24T05:27:11.105Z,98321.53
2023-04-24T05:28:15.166Z,98319.53
2023-04-24T05:29:20.500Z,98315.56
2023-04-24T05:30:28.642Z,98311.03
2023-04-24T05:31:33.191Z,98319.41
2023-04-24T05:32:37.139Z,98321.91
2023-04-24T05:33:41.475Z,98317.69
2023-04-24T05:34:49.123Z,98316.94
2023-04-24T05:35:53.165Z,98316.19
2023-04-24T05:36:56.982Z,98315.22
2023-04-24T05:38:00.684Z,98315.38
2023-04-24T05:39:08.091Z,98310.75
2023-04-24T05:40:13.052Z,98312.41
2023-04-24T05:41:16.945Z,98306.28
2023-04-24T05:42:21.429Z,98313.91
2023-04-24T05:43:26.381Z,98311.38
2023-04-24T05:44:30.126Z,98311.41
2023-04-24T05:45:35.746Z,98312.94
2023-04-24T05:46:39.649Z,98308.22
2023-04-24T05:47:50.728Z,98304.56
2023-04-24T05:48:58.154Z,98304.38
2023-04-24T05:50:01.798Z,98297.78
2023-04-24T05:51:06.087Z,98299.84
2023-04-24T05:52:10.306Z,98300.19
2023-04-24T05:53:14.433Z,98296.34
2023-04-24T05:54:18.416Z,98301.09
2023-04-24T05:55:22.161Z,98294.44
2023-04-24T05:56:26.342Z,98292.28
2023-04-24T05:57:30.695Z,98291.53
2023-04-24T05:58:34.870Z,98286.78
2023-04-24T05:59:54.357Z,98284.72
2023-04-24T06:01:03.679Z,98289.88
2023-04-24T06:02:08.826Z,98281.22
2023-04-24T06:03:24.754Z,98289.97
2023-04-24T06:04:29.563Z,98293.91
2023-04-24T06:05:33.671Z,98284.97
2023-04-24T06:06:38.111Z,98291.66
2023-04-24T06:07:41.985Z,98288.16
2023-04-24T06:08:46.613Z,98282.00
2023-04-24T06:09:50.535Z,98277.88
2023-04-24T06:10:54.720Z,98283.59
2023-04-24T06:11:59.773Z,98282.63
2023-04-24T06:13:03.965Z,98284.28
2023-04-24T06:14:07.846Z,98278.88
2023-04-24T06:15:12.044Z,98279.72
2023-04-24T06:16:16.189Z,98287.00
2023-04-24T06:17:23.209Z,98283.06
2023-04-24T06:18:27.827Z,98282.88
2023-04-24T06:19:31.880Z,98278.28
2023-04-24T06:20:36.147Z,98281.03
2023-04-24T06:21:42.993Z,98274.97
2023-04-24T06:22:46.843Z,98271.88
2023-04-24T06:23:51.275Z,98275.19
2023-04-24T06:24:55.680Z,98271.41
2023-04-24T06:26:00.690Z,98268.84
2023-04-24T06:27:04.752Z,98270.00
2023-04-24T06:28:09.574Z,98267.19
2023-04-24T06:29:13.519Z,98269.03
2023-04-24T06:30:17.778Z,98269.16
2023-04-24T06:31:22.528Z,98273.63
2023-04-24T06:32:26.924Z,98266.50
2023-04-24T06:33:31.550Z,98262.97
2023-04-24T06:34:37.748Z,98263.16
2023-04-24T06:35:42.131Z,98264.41
2023-04-24T06:36:46.728Z,98253.19
2023-04-24T06:37:50.672Z,98256.22
2023-04-24T06:38:55.274Z,98251.13
2023-04-24T06:39:59.372Z,98241.81
2023-04-24T06:41:05.005Z,98256.22
2023-04-24T06:42:12.583Z,98251.31
2023-04-24T06:43:16.742Z,98249.41
2023-04-24T06:44:21.071Z,98244.28
2023-04-24T06:45:25.083Z,98251.22
2023-04-24T06:46:29.109Z,98251.25
2023-04-24T06:47:33.474Z,98247.34
2023-04-24T06:48:37.570Z,98238.00
2023-04-24T06:49:41.436Z,98242.28
2023-04-24T06:50:46.327Z,98246.38
2023-04-24T06:51:50.222Z,98240.50
2023-04-24T06:52:54.824Z,98238.81
2023-04-24T06:53:59.023Z,98236.63
2023-04-24T06:55:04.732Z,98244.19
2023-04-24T06:56:09.218Z,98235.03
2023-04-24T06:57:17.480Z,98248.53
2023-04-24T06:58:24.459Z,98237.00
2023-04-24T06:59:30.971Z,98236.06
2023-04-24T07:00:35.102Z,98242.69
2023-04-24T07:01:42.258Z,98247.38
2023-04-24T07:02:46.412Z,98243.88
2023-04-24T07:03:50.713Z,98238.44
2023-04-24T07:04:54.918Z,98239.88
2023-04-24T07:05:59.117Z,98232.16
2023-04-24T07:07:03.549Z,98232.41
2023-04-24T07:08:12.606Z,98240.47
2023-04-24T07:09:28.529Z,98232.00
2023-04-24T07:10:32.563Z,98233.56
2023-04-24T07:11:37.944Z,98225.97
2023-04-24T07:12:42.655Z,98225.19
2023-04-24T07:13:47.125Z,98230.28
2023-04-24T07:14:52.721Z,98222.41
2023-04-24T07:15:57.613Z,98229.03
2023-04-24T07:17:01.319Z,98225.59
2023-04-24T07:18:08.019Z,98223.19
2023-04-24T07:19:15.156Z,98217.59
2023-04-24T07:20:19.660Z,98214.31
2023-04-24T07:21:23.458Z,98216.47
2023-04-24T07:22:31.630Z,98220.69
2023-04-24T07:23:35.699Z,98218.47
2023-04-24T07:24:39.588Z,98218.94
2023-04-24T07:25:43.723Z,98210.63
2023-04-24T07:26:48.002Z,98208.28
2023-04-24T07:27:51.704Z,98208.69
2023-04-24T07:28:56.134Z,98212.84
2023-04-24T07:29:59.961Z,98211.19
2023-04-24T07:31:04.487Z,98206.81
2023-04-24T07:32:09.324Z,98212.03
2023-04-24T07:33:17.404Z,98205.19
2023-04-24T07:34:21.803Z,98207.13
2023-04-24T07:35:28.984Z,98210.97
2023-04-24T07:36:33.432Z,98205.44
2023-04-24T07:37:38.019Z,98213.44
2023-04-24T07:38:41.738Z,98211.47
2023-04-24T07:39:46.296Z,98202.13
2023-04-24T07:40:50.716Z,98205.34
2023-04-24T07:41:54.732Z,98203.75
2023-04-24T07:42:58.378Z,98205.53
2023-04-24T07:44:03.090Z,98191.56
2023-04-24T07:45:07.785Z,98201.50
2023-04-24T07:46:11.781Z,98197.06
2023-04-24T07:47:17.117Z,98192.44
2023-04-24T07:48:23.259Z,98193.50
2023-04-24T07:49:32.373Z,98193.59
2023-04-24T07:50:37.434Z,98190.00
2023-04-24T07:51:42.726Z,98196.50
2023-04-24T07:52:48.505Z,98190.41
2023-04-24T07:53:53.069Z,98186.44
2023-04-24T07:55:01.472Z,98189.97
2023-04-24T07:56:06.674Z,98196.28
2023-04-24T07:57:11.181Z,98185.78
2023-04-24T07:58:16.530Z,98182.78
2023-04-24T07:59:26.389Z,98187.34
2023-04-24T08:00:30.719Z,98179.94
2023-04-24T08:01:35.158Z,98188.47
2023-04-24T08:02:42.924Z,98185.41
2023-04-24T08:03:50.187Z,98178.97
2023-04-24T08:04:55.993Z,98181.28
2023-04-24T08:06:00.924Z,98179.56
2023-04-24T08:07:05.218Z,98177.56
2023-04-24T08:08:09.788Z,98174.25
2023-04-24T08:09:16.226Z,98184.88
2023-04-24T08:10:20.166Z,98176.56
2023-04-24T08:11:24.976Z,98179.84
2023-04-24T08:12:32.532Z,98174.72
2023-04-24T08:13:37.542Z,98172.63
2023-04-24T08:14:42.165Z,98175.91
2023-04-24T08:15:47.505Z,98172.38
2023-04-24T08:16:51.423Z,98168.88
2023-04-24T08:17:57.226Z,98166.38
2023-04-24T08:19:02.867Z,98168.16
2023-04-24T08:20:11.728Z,98169.56
2023-04-24T08:21:18.390Z,98164.91
2023-04-24T08:22:22.409Z,98162.28
2023-04-24T08:23:34.175Z,98168.88
2023-04-24T08:24:38.177Z,98162.22
2023-04-24T08:25:54.872Z,98162.22
2023-04-24T08:26:59.300Z,98170.81
2023-04-24T08:28:07.152Z,98166.38
2023-04-24T08:29:11.044Z,98168.84
2023-04-24T08:30:24.587Z,98164.16
2023-04-24T08:31:28.976Z,98166.88
2023-04-24T08:32:33.355Z,98158.78
2023-04-24T08:33:37.227Z,98164.97
2023-04-24T08:34:41.365Z,98158.44
2023-04-24T08:35:45.684Z,98157.78
2023-04-24T08:36:50.237Z,98162.00
2023-04-24T08:37:57.356Z,98164.91
2023-04-24T08:39:01.006Z,98164.91
2023-04-24T08:40:15.833Z,98166.13
2023-04-24T08:41:20.845Z,98153.72
2023-04-24T08:42:29.908Z,98168.97
2023-04-24T08:43:38.053Z,98161.16
2023-04-24T08:44:43.659Z,98162.13
2023-04-24T08:45:51.491Z,98166.28
2023-04-24T08:46:56.360Z,98151.34
2023-04-24T08:48:01.482Z,98147.69
2023-04-24T08:49:06.253Z,98159.75
2023-04-24T08:50:11.588Z,98155.41
2023-04-24T08:51:19.716Z,98156.22
2023-04-24T08:52:24.509Z,98154.06
2023-04-24T08:53:29.221Z,98152.16
2023-04-24T08:54:36.293Z,98155.16
2023-04-24T08:55:43.352Z,98150.53
2023-04-24T08:56:50.153Z,98146.59
2023-04-24T08:57:55.468Z,98153.72
2023-04-24T08:59:00.263Z,98151.19
2023-04-24T09:00:06.006Z,98145.63
2023-04-24T09:01:11.631Z,98142.88
2023-04-24T09:02:17.343Z,98146.00
2023-04-24T09:03:23.585Z,98149.25
2023-04-24T09:04:30.543Z,98143.19
2023-04-24T09:05:35.121Z,98147.25
2023-04-24T09:06:39.490Z,98142.22
2023-04-24T09:07:52.567Z,98147.75
2023-04-24T09:08:57.967Z,98148.69
2023-04-24T09:10:04.381Z,98151.63
2023-04-24T09:11:11.043Z,98147.09
2023-04-24T09:12:16.186Z,98141.16
2023-04-24T09:13:24.276Z,98144.34
2023-04-24T09:14:29.817Z,98155.78
2023-04-24T09:15:34.572Z,98147.34
2023-04-24T09:16:40.076Z,98147.75
2023-04-24T09:17:45.919Z,98143.63
2023-04-24T09:18:50.781Z,98142.81
2023-04-24T09:19:57.613Z,98139.00
2023-04-24T09:21:12.111Z,98138.78
2023-04-24T09:22:16.745Z,98133.03
2023-04-24T09:23:20.845Z,98129.81
2023-04-24T09:24:25.478Z,98129.72
2023-04-24T09:25:39.726Z,98120.97
2023-04-24T09:26:43.976Z,98129.19
2023-04-24T09:27:56.574Z,98135.44
2023-04-24T09:29:01.399Z,98129.88
2023-04-24T09:30:06.791Z,98129.09
2023-04-24T09:31:17.866Z,98127.13
2023-04-24T09:32:27.218Z,98120.50
2023-04-24T09:33:32.276Z,98122.66
2023-04-24T09:34:37.099Z,98123.03
2023-04-24T09:35:53.216Z,98123.72
2023-04-24T09:36:57.056Z,98115.00
2023-04-24T09:38:01.245Z,98121.09
2023-04-24T09:39:12.417Z,98122.44
2023-04-24T09:40:23.555Z,98116.91
2023-04-24T09:41:33.047Z,98117.47
2023-04-24T09:42:36.987Z,98110.38
2023-04-24T09:43:40.875Z,98110.94
2023-04-24T09:44:45.476Z,98107.03
2023-04-24T09:45:49.235Z,98111.91
2023-04-24T09:47:01.115Z,98109.16
2023-04-24T09:48:07.614Z,98112.25
2023-04-24T09:49:17.715Z,98108.69
2023-04-24T09:50:22.746Z,98103.38
2023-04-24T09:51:39.509Z,98102.19
2023-04-24T09:53:02.201Z,98094.09
2023-04-24T09:54:25.772Z,98105.19
2023-04-24T09:55:30.564Z,98109.19
2023-04-24T09:56:36.465Z,98105.19
2023-04-24T09:58:10.464Z,98110.34
2023-04-24T09:59:16.636Z,98099.81
2023-04-24T10:00:30.123Z,98099.44
2023-04-24T10:01:34.986Z,98109.19
2023-04-24T10:02:39.115Z,98099.88
2023-04-24T10:03:47.823Z,98099.09
2023-04-24T10:05:01.104Z,98095.69
2023-04-24T10:06:10.347Z,98096.16
2023-04-24T10:07:18.351Z,98100.88
2023-04-24T10:08:26.239Z,98096.38
2023-04-24T10:09:30.484Z,98095.09
2023-04-24T10:10:41.273Z,98091.66
2023-04-24T10:11:48.830Z,98094.84
2023-04-24T10:12:54.991Z,98092.13
2023-04-24T10:14:00.274Z,98091.22
2023-04-24T10:15:07.024Z,98089.22
2023-04-24T10:16:12.032Z,98095.53
2023-04-24T10:17:17.067Z,98086.63
2023-04-24T10:18:23.099Z,98095.97
2023-04-24T10:19:31.840Z,98094.78
2023-04-24T10:20:40.210Z,98093.38
2023-04-24T10:21:49.362Z,98084.59
2023-04-24T10:22:56.229Z,98081.06
2023-04-24T10:24:04.819Z,98088.13
2023-04-24T10:25:11.283Z,98082.97
2023-04-24T10:26:19.073Z,98084.72
2023-04-24T10:27:24.473Z,98081.16
2023-04-24T10:28:32.886Z,98080.09
2023-04-24T10:29:40.162Z,98079.28
2023-04-24T10:30:46.611Z,98085.06
2023-04-24T10:31:51.081Z,98083.47
2023-04-24T10:32:55.886Z,98083.94
2023-04-24T10:34:02.695Z,98083.41
2023-04-24T10:35:10.210Z,98083.47
2023-04-24T10:36:17.561Z,98081.00
2023-04-24T10:37:22.054Z,98086.19
2023-04-24T10:38:31.592Z,98087.28
2023-04-24T10:39:37.414Z,98086.47
2023-04-24T10:40:43.776Z,98091.06
2023-04-24T10:41:59.167Z,98090.50
2023-04-24T10:43:11.136Z,98083.00
2023-04-24T10:44:18.114Z,98090.91
2023-04-24T10:45:26.014Z,98087.25
2023-04-24T10:46:32.989Z,98088.13
2023-04-24T10:47:43.516Z,98080.53
2023-04-24T10:48:57.309Z,98083.66
2023-04-24T10:50:01.969Z,98071.59
2023-04-24T10:51:06.421Z,98073.41
2023-04-24T10:52:11.979Z,98070.78
2023-04-24T10:53:24.440Z,98065.84
2023-04-24T10:54:35.104Z,98066.22
2023-04-24T10:55:55.454Z,98061.97
2023-04-24T10:57:25.815Z,98058.38
2023-04-24T10:58:55.626Z,98074.56
2023-04-24T11:00:23.137Z,98060.38
2023-04-24T11:01:31.091Z,98055.78
2023-04-24T11:02:49.922Z,98053.59
2023-04-24T11:04:04.340Z,98056.94
2023-04-24T11:05:12.251Z,98061.88
2023-04-24T11:06:17.568Z,98058.34
2023-04-24T11:07:22.700Z,98061.66
2023-04-24T11:08:34.889Z,98061.44
2023-04-24T11:09:44.830Z,98064.97
2023-04-24T11:11:14.230Z,98061.44
2023-04-24T11:12:20.542Z,98054.97
2023-04-24T11:13:50.498Z,98058.53
2023-04-24T11:14:58.067Z,98057.06
2023-04-24T11:16:36.300Z,98062.25
2023-04-24T11:17:43.950Z,98058.28
2023-04-24T11:18:55.723Z,98059.06
2023-04-24T11:20:27.677Z,98054.41
2023-04-24T11:21:57.165Z,98048.69
2023-04-24T11:23:07.852Z,98047.84
2023-04-24T11:24:40.414Z,98044.69
2023-04-24T11:25:44.833Z,98045.50
2023-04-24T11:26:48.890Z,98043.16
2023-04-24T11:28:06.132Z,98044.81
2023-04-24T11:29:10.603Z,98047.75
2023-04-24T11:30:22.305Z,98038.34
2023-04-24T11:31:41.804Z,98040.44
2023-04-24T11:32:51.859Z,98038.84
2023-04-24T11:33:56.279Z,98041.28
2023-04-24T11:35:26.356Z,98043.63
2023-04-24T11:36:34.249Z,98032.59
2023-04-24T11:37:44.033Z,98044.50
2023-04-24T11:38:48.845Z,98036.38
2023-04-24T11:40:00.785Z,98040.72
2023-04-24T11:41:07.618Z,98038.63
2023-04-24T11:42:15.988Z,98048.69
2023-04-24T11:43:22.380Z,98042.91
2023-04-24T11:44:29.708Z,98047.31
2023-04-24T11:45:33.575Z,98041.28
2023-04-24T11:46:39.309Z,98043.41
2023-04-24T11:47:45.961Z,98038.41
2023-04-24T11:48:50.207Z,98038.13
2023-04-24T11:49:54.058Z,98038.78
2023-04-24T11:51:03.120Z,98025.81
2023-04-24T11:52:11.902Z,98028.75
2023-04-24T11:53:16.204Z,98021.97
2023-04-24T11:54:20.438Z,98023.41
2023-04-24T11:55:28.317Z,98016.94
2023-04-24T11:56:32.793Z,98020.09
2023-04-24T11:57:37.825Z,98024.69
2023-04-24T11:58:41.873Z,98015.28
2023-04-24T11:59:45.594Z,98018.75
2023-04-24T12:01:02.499Z,98022.91
2023-04-24T12:02:07.853Z,98025.22
2023-04-24T12:03:16.662Z,98016.25
2023-04-24T12:04:20.794Z,98018.31
2023-04-24T12:05:28.922Z,98014.72
2023-04-24T12:06:36.344Z,98010.47
2023-04-24T12:07:46.807Z,98018.19
2023-04-24T12:09:01.730Z,98006.94
2023-04-24T12:10:10.737Z,98018.59
2023-04-24T12:11:19.187Z,98005.13
2023-04-24T12:12:30.122Z,98009.72
2023-04-24T12:13:35.481Z,98007.31
2023-04-24T12:14:51.585Z,98005.25
2023-04-24T12:15:56.879Z,98011.38
2023-04-24T12:17:01.070Z,98001.56
2023-04-24T12:18:05.682Z,98005.94
2023-04-24T12:19:09.720Z,97996.34
2023-04-24T12:20:15.374Z,97998.31
2023-04-24T12:21:25.092Z,97997.44
2023-04-24T12:22:30.624Z,98000.44
2023-04-24T12:23:39.221Z,97996.69
2023-04-24T12:25:03.712Z,97998.34
2023-04-24T12:26:07.935Z,97996.31
2023-04-24T12:27:21.979Z,97992.91
2023-04-24T12:28:26.163Z,97990.19
2023-04-24T12:29:30.523Z,97992.78
2023-04-24T12:30:49.899Z,98002.69
2023-04-24T12:31:54.549Z,97999.75
2023-04-24T12:33:02.169Z,97990.63
2023-04-24T12:34:21.858Z,97996.31
2023-04-24T12:35:29.769Z,98000.06
2023-04-24T12:36:33.857Z,97991.94
2023-04-24T12:37:38.374Z,97993.47
2023-04-24T12:38:47.677Z,97989.69
2023-04-24T12:40:05.336Z,97986.16
2023-04-24T12:41:15.510Z,97995.38
2023-04-24T12:42:31.728Z,97988.13
2023-04-24T12:43:37.270Z,97991.69
2023-04-24T12:44:41.371Z,97987.53
2023-04-24T12:46:00.675Z,97994.84
2023-04-24T12:47:06.008Z,97995.50
2023-04-24T12:48:11.282Z,97988.84
2023-04-24T12:49:20.847Z,98008.44
2023-04-24T12:50:25.286Z,98005.91
2023-04-24T12:51:34.522Z,98010.13
2023-04-24T12:52:39.821Z,98008.91
2023-04-24T12:53:44.768Z,98013.97
2023-04-24T12:54:52.513Z,98008.00
2023-04-24T12:55:57.872Z,98014.03
2023-04-24T12:57:10.744Z,98015.03
2023-04-24T12:58:16.252Z,98012.56
2023-04-24T12:59:28.435Z,98005.91
2023-04-24T13:00:45.284Z,98015.53
2023-04-24T13:01:49.561Z,98012.88
2023-04-24T13:02:53.829Z,98015.38
2023-04-24T13:04:03.691Z,98010.22
2023-04-24T13:05:12.866Z,98010.22
2023-04-24T13:06:16.929Z,98007.72
2023-04-24T13:07:25.131Z,98010.19
2023-04-24T13:08:32.715Z,98016.03
2023-04-24T13:09:37.300Z,98013.75
2023-04-24T13:10:42.852Z,98011.66
2023-04-24T13:11:46.869Z,98016.22
2023-04-24T13:12:51.898Z,98015.19
2023-04-24T13:14:00.172Z,98014.75
2023-04-24T13:15:04.796Z,98019.16
2023-04-24T13:16:12.774Z,98016.44
2023-04-24T13:17:17.062Z,98020.59
2023-04-24T13:18:21.338Z,98009.75
2023-04-24T13:19:27.981Z,98020.97
2023-04-24T13:20:32.561Z,98012.84
2023-04-24T13:21:36.982Z,98019.06
2023-04-24T13:22:46.922Z,98019.63
2023-04-24T13:23:56.971Z,98017.16
2023-04-24T13:25:02.606Z,98017.53
2023-04-24T13:26:06.660Z,98024.59
2023-04-24T13:27:11.003Z,98021.69
2023-04-24T13:28:15.076Z,98025.81
2023-04-24T13:29:19.445Z,98025.19
2023-04-24T13:30:23.451Z,98031.63
2023-04-24T13:31:27.494Z,98028.28
2023-04-24T13:32:32.099Z,98030.34
2023-04-24T13:33:36.195Z,98030.78
2023-04-24T13:34:40.109Z,98027.44
2023-04-24T13:35:43.799Z,98031.97
2023-04-24T13:36:47.719Z,98025.72
2023-04-24T13:37:52.376Z,98034.63
2023-04-24T13:38:57.481Z,98034.81
2023-04-24T13:40:01.435Z,98031.91
2023-04-24T13:41:05.290Z,98031.50
2023-04-24T13:42:12.971Z,98034.38
2023-04-24T13:43:17.040Z,98041.38
2023-04-24T13:44:23.622Z,98046.72
2023-04-24T13:45:27.433Z,98034.28
2023-04-24T13:46:32.081Z,98040.09
2023-04-24T13:47:37.287Z,98040.88
2023-04-24T13:48:41.405Z,98045.41
2023-04-24T13:49:45.297Z,98041.66
2023-04-24T13:50:51.076Z,98039.31
2023-04-24T13:51:57.522Z,98041.19
2023-04-24T13:53:03.117Z,98041.59
2023-04-24T13:54:10.168Z,98039.31
2023-04-24T13:55:14.597Z,98046.09
2023-04-24T13:56:19.142Z,98048.78
2023-04-24T13:57:26.710Z,98047.28
2023-04-24T13:58:30.857Z,98040.41
2023-04-24T13:59:38.489Z,98041.06
2023-04-24T14:00:48.193Z,98045.41
2023-04-24T14:01:52.671Z,98048.13
2023-04-24T14:02:56.746Z,98057.22
2023-04-24T14:04:01.663Z,98045.63
2023-04-24T14:05:07.904Z,98058.44
2023-04-24T14:06:12.230Z,98060.28
2023-04-24T14:07:16.924Z,98056.78
2023-04-24T14:08:23.570Z,98068.97
2023-04-24T14:09:27.421Z,98067.94
2023-04-24T14:10:31.916Z,98061.06
2023-04-24T14:11:36.929Z,98064.38
2023-04-24T14:12:41.246Z,98063.75
2023-04-24T14:13:46.813Z,98068.53
2023-04-24T14:14:53.656Z,98074.31
2023-04-24T14:15:58.072Z,98068.66
2023-04-24T14:17:02.295Z,98063.47
2023-04-24T14:18:06.602Z,98076.28
2023-04-24T14:19:11.810Z,98071.94
2023-04-24T14:20:15.720Z,98073.22
2023-04-24T14:21:19.685Z,98074.06